Terminal Aerodrome Forecast
Issued by NWS Binghamton, NY

Home | Current Version | Previous Version | Text Only | Print | Product List | Glossary On
Versions: 1 2 3 4 5 6 7 8 9 10 11 12 13 14 15 16
194
FTUS41 KBGM 241136
TAFSYR
TAF
KSYR 241136Z 2412/2512 26010KT P6SM SCT040
     FM241600 27012G20KT P6SM SCT150
     FM242300 28008KT P6SM SCT150
     FM250100 25004KT P6SM SCT150=

USA.gov is the U.S. government's official web portal to all federal, state and local government web resources and services.